Time;durP1;ratioP1;P1;durP2;ratioP2;P2;SDS_P1;SDS_P2;PMS_P1;PMS_P2;Temp;Humidity;BMP_temperature;BMP_pressure;BME280_temperature;BME280_humidity;BME280_pressure;Samples;Min_cycle;Max_cycle;Signal;HPM_P1;HPM_P2
2021/05/29 00:01:14;;;;;;;12.00;7.80;;;11.60;99.90;;;;;;4447174;32;20173;-73
2021/05/29 00:03:42;;;;;;;12.27;8.03;;;11.50;99.90;;;;;;4440582;32;20138;-74
2021/05/29 00:06:09;;;;;;;11.57;7.87;;;11.50;99.90;;;;;;4441234;32;20158;-73
2021/05/29 00:08:35;;;;;;;12.10;8.03;;;11.40;99.90;;;;;;4440605;32;20134;-73
2021/05/29 00:11:03;;;;;;;12.30;8.20;;;11.40;99.90;;;;;;4440103;32;20160;-73
2021/05/29 00:13:31;;;;;;;12.17;8.23;;;11.40;99.90;;;;;;4440380;32;20452;-74
2021/05/29 00:15:59;;;;;;;12.53;7.87;;;11.30;99.90;;;;;;4440182;32;20151;-73
2021/05/29 00:18:26;;;;;;;11.30;7.33;;;11.30;99.90;;;;;;4439873;32;20174;-73
2021/05/29 00:20:55;;;;;;;10.83;7.37;;;11.40;99.90;;;;;;4440046;32;20456;-74
2021/05/29 00:23:22;;;;;;;9.90;6.80;;;11.50;99.90;;;;;;4439578;32;20146;-73
2021/05/29 00:25:49;;;;;;;10.70;6.70;;;11.60;99.90;;;;;;4440031;32;20457;-74
2021/05/29 00:28:16;;;;;;;9.17;6.33;;;11.60;99.90;;;;;;4441417;32;20146;-74
2021/05/29 00:30:44;;;;;;;8.77;6.17;;;11.70;99.90;;;;;;4439266;32;20142;-73
2021/05/29 00:33:11;;;;;;;8.03;5.90;;;11.70;99.90;;;;;;4440155;32;20160;-74
2021/05/29 00:35:39;;;;;;;9.17;5.13;;;11.70;99.90;;;;;;4438989;32;20457;-74
2021/05/29 00:38:06;;;;;;;10.03;5.23;;;11.70;99.90;;;;;;4445368;32;20250;-74
2021/05/29 00:40:34;;;;;;;7.50;5.40;;;11.70;99.90;;;;;;4450448;32;20177;-74
2021/05/29 00:43:02;;;;;;;6.80;4.87;;;11.70;99.90;;;;;;4439805;32;20154;-74
2021/05/29 00:45:29;;;;;;;7.50;5.23;;;11.80;99.90;;;;;;4439864;32;20188;-73
2021/05/29 00:47:59;;;;;;;5.93;4.50;;;11.80;99.90;;;;;;4439663;32;20147;-74
2021/05/29 00:50:27;;;;;;;6.20;4.50;;;11.80;99.90;;;;;;4439541;32;20162;-73
2021/05/29 00:52:54;;;;;;;7.40;4.90;;;11.80;99.90;;;;;;4439499;32;20199;-73
2021/05/29 00:55:22;;;;;;;8.07;5.17;;;11.80;99.90;;;;;;4441202;32;20138;-74
2021/05/29 00:57:51;;;;;;;6.40;4.80;;;11.90;99.90;;;;;;4439889;32;20237;-73
2021/05/29 01:00:21;;;;;;;6.67;5.17;;;11.90;99.90;;;;;;4440163;32;20198;-75
2021/05/29 01:02:50;;;;;;;6.73;4.90;;;11.80;99.90;;;;;;4441161;32;20202;-74
2021/05/29 01:05:18;;;;;;;6.57;5.03;;;11.90;99.90;;;;;;4438632;32;20229;-74
2021/05/29 01:07:53;;;;;;;7.53;4.90;;;11.90;99.90;;;;;;4439043;32;20182;-74
2021/05/29 01:10:23;;;;;;;6.80;5.17;;;12.00;99.90;;;;;;4440829;32;20416;-74
2021/05/29 01:12:51;;;;;;;6.30;4.70;;;12.00;99.90;;;;;;4440247;32;20134;-74
2021/05/29 01:15:20;;;;;;;6.23;4.60;;;12.10;99.90;;;;;;4439743;32;20142;-74
2021/05/29 01:17:47;;;;;;;6.67;4.70;;;12.00;99.90;;;;;;4442039;32;20185;-74
2021/05/29 01:20:14;;;;;;;8.07;5.27;;;12.10;99.90;;;;;;4446930;32;20217;-74
2021/05/29 01:22:53;;;;;;;7.40;5.20;;;12.00;99.90;;;;;;4439547;32;20187;-74
2021/05/29 01:25:32;;;;;;;5.57;4.90;;;12.10;99.90;;;;;;4439616;32;20480;-74
2021/05/29 01:28:03;;;;;;;8.17;4.93;;;12.10;99.90;;;;;;4439568;32;20180;-74
2021/05/29 01:30:47;;;;;;;9.93;5.50;;;12.10;99.90;;;;;;4441496;32;20148;-74
2021/05/29 01:33:16;;;;;;;8.93;5.30;;;12.10;99.90;;;;;;4439710;32;20176;-74
2021/05/29 01:35:44;;;;;;;7.47;5.90;;;12.00;99.90;;;;;;4438538;32;20188;-74
2021/05/29 01:38:12;;;;;;;9.40;5.90;;;12.00;99.90;;;;;;4440486;32;20234;-74
2021/05/29 01:40:40;;;;;;;8.63;6.13;;;12.00;99.90;;;;;;4441099;32;20146;-74
2021/05/29 01:43:09;;;;;;;8.20;5.90;;;12.00;99.90;;;;;;4440660;32;20170;-74
2021/05/29 01:45:41;;;;;;;8.17;5.70;;;12.00;99.90;;;;;;4439284;32;20138;-74
2021/05/29 01:48:09;;;;;;;10.67;6.37;;;12.00;99.90;;;;;;4440239;32;20393;-74
2021/05/29 01:50:46;;;;;;;8.30;6.13;;;11.90;99.90;;;;;;4442223;32;20161;-74
2021/05/29 01:53:15;;;;;;;8.87;6.20;;;11.80;99.90;;;;;;4442301;32;20150;-74
2021/05/29 01:55:44;;;;;;;10.40;6.80;;;11.80;99.90;;;;;;4442156;32;20199;-74
2021/05/29 01:58:11;;;;;;;10.53;6.93;;;11.80;99.90;;;;;;4450528;32;20234;-74
2021/05/29 02:00:39;;;;;;;8.83;6.60;;;11.80;99.90;;;;;;4442298;32;20170;-75
2021/05/29 02:03:06;;;;;;;10.47;6.80;;;11.80;99.90;;;;;;4442073;32;20148;-74
2021/05/29 02:05:34;;;;;;;11.90;7.33;;;11.70;99.90;;;;;;4442308;32;20433;-74
2021/05/29 02:08:03;;;;;;;11.63;7.70;;;11.80;99.90;;;;;;4442052;32;20229;-74
2021/05/29 02:10:32;;;;;;;12.90;7.40;;;11.70;99.90;;;;;;4442029;32;20139;-74
2021/05/29 02:13:03;;;;;;;8.57;7.30;;;11.80;99.90;;;;;;4442028;32;20130;-74
2021/05/29 02:15:33;;;;;;;10.40;7.77;;;11.80;99.90;;;;;;4443498;32;20188;-74
2021/05/29 02:18:04;;;;;;;10.13;7.57;;;11.80;99.90;;;;;;4443316;32;20177;-74
2021/05/29 02:20:52;;;;;;;11.27;7.60;;;11.70;99.90;;;;;;4443417;32;20162;-74
2021/05/29 02:23:19;;;;;;;12.97;7.90;;;11.80;99.90;;;;;;4441899;32;20139;-74
2021/05/29 02:25:47;;;;;;;14.13;8.43;;;11.80;99.90;;;;;;4441740;32;20432;-74
2021/05/29 02:28:15;;;;;;;10.43;8.23;;;11.70;99.90;;;;;;4441817;32;20176;-74
2021/05/29 02:30:42;;;;;;;10.93;8.10;;;11.70;99.90;;;;;;4441672;32;20201;-74
2021/05/29 02:33:09;;;;;;;12.73;8.63;;;11.60;99.90;;;;;;4443286;32;20405;-74
2021/05/29 02:35:37;;;;;;;11.17;8.70;;;11.70;99.90;;;;;;4443090;32;20139;-74
2021/05/29 02:38:05;;;;;;;12.10;8.67;;;11.60;99.90;;;;;;4441605;32;20173;-74
2021/05/29 02:40:33;;;;;;;11.10;8.57;;;11.60;99.90;;;;;;4442669;32;20202;-74
2021/05/29 02:43:00;;;;;;;13.43;8.73;;;11.60;99.90;;;;;;4442894;32;20199;-74
2021/05/29 02:45:29;;;;;;;12.10;9.00;;;11.70;99.90;;;;;;4442653;32;20146;-74
2021/05/29 02:47:56;;;;;;;13.83;9.17;;;11.70;99.90;;;;;;4441089;32;20131;-74
2021/05/29 02:50:23;;;;;;;12.43;8.80;;;11.60;99.90;;;;;;4442930;32;20138;-74
2021/05/29 02:52:51;;;;;;;12.00;8.57;;;11.70;99.90;;;;;;4441190;32;20150;-74
2021/05/29 02:55:22;;;;;;;12.57;9.30;;;11.70;99.90;;;;;;4441424;32;20197;-74
2021/05/29 02:57:53;;;;;;;11.40;8.90;;;11.70;99.90;;;;;;4443016;32;20525;-75
2021/05/29 03:00:29;;;;;;;11.73;8.97;;;11.70;99.90;;;;;;4441937;32;20233;-74
2021/05/29 03:02:57;;;;;;;12.53;9.30;;;11.70;99.90;;;;;;4443052;32;20138;-74
2021/05/29 03:05:24;;;;;;;16.73;9.60;;;11.70;99.90;;;;;;4441007;32;20147;-74
2021/05/29 03:07:51;;;;;;;13.93;10.23;;;11.70;99.90;;;;;;4441680;32;20208;-75
2021/05/29 03:10:20;;;;;;;11.63;9.60;;;11.70;99.90;;;;;;4444759;32;20181;-75
2021/05/29 03:12:52;;;;;;;12.00;9.77;;;11.80;99.90;;;;;;4449260;32;20456;-74
2021/05/29 03:15:26;;;;;;;11.33;9.47;;;11.70;99.90;;;;;;4440556;32;20192;-74
2021/05/29 03:17:54;;;;;;;12.33;10.07;;;11.80;99.90;;;;;;4441103;32;20382;-70
2021/05/29 03:20:25;;;;;;;14.90;10.47;;;11.80;99.90;;;;;;4442672;32;20138;-70
2021/05/29 03:22:52;;;;;;;11.63;8.87;;;11.90;99.90;;;;;;4442519;32;20222;-70
2021/05/29 03:25:20;;;;;;;12.70;10.50;;;11.90;99.90;;;;;;4440891;32;20178;-70
2021/05/29 03:27:50;;;;;;;13.57;10.40;;;11.90;99.90;;;;;;4440797;32;20289;-70
2021/05/29 03:30:21;;;;;;;13.60;10.10;;;11.90;99.90;;;;;;4442228;32;20134;-70
2021/05/29 03:32:48;;;;;;;14.63;10.33;;;11.90;99.90;;;;;;4442172;32;20203;-70
2021/05/29 03:35:16;;;;;;;14.25;11.52;;;11.80;99.90;;;;;;4438988;32;20056;-71
2021/05/29 03:37:43;;;;;;;14.10;10.93;;;11.90;99.90;;;;;;4440651;32;20445;-70
2021/05/29 03:40:12;;;;;;;13.50;10.17;;;11.90;99.90;;;;;;4440978;32;20203;-70
2021/05/29 03:42:39;;;;;;;13.40;9.90;;;11.90;99.90;;;;;;4442176;32;20191;-69
2021/05/29 03:45:09;;;;;;;12.40;10.03;;;12.00;99.90;;;;;;4445433;32;20163;-70
2021/05/29 03:47:36;;;;;;;13.30;9.83;;;12.00;99.90;;;;;;4448617;32;20157;-70
2021/05/29 03:50:04;;;;;;;13.20;10.17;;;12.20;99.90;;;;;;4445482;32;20476;-70
2021/05/29 03:52:31;;;;;;;12.17;10.00;;;12.10;99.90;;;;;;4440450;32;20413;-69
2021/05/29 03:54:58;;;;;;;13.50;9.63;;;12.00;99.90;;;;;;4442049;32;20227;-69
2021/05/29 03:57:25;;;;;;;15.13;10.20;;;12.00;99.90;;;;;;4440259;32;20209;-70
2021/05/29 03:59:52;;;;;;;14.23;10.33;;;12.10;99.90;;;;;;4441897;32;20156;-70
2021/05/29 04:02:19;;;;;;;12.67;9.77;;;12.00;99.90;;;;;;4440423;32;20147;-70
2021/05/29 04:04:46;;;;;;;13.70;10.10;;;12.00;99.90;;;;;;4441708;32;20147;-70
2021/05/29 04:07:12;;;;;;;13.23;9.63;;;12.10;99.90;;;;;;4442512;32;20165;-70
2021/05/29 04:09:39;;;;;;;15.87;10.20;;;12.20;99.90;;;;;;4447657;32;20169;-70
2021/05/29 04:12:07;;;;;;;15.10;9.80;;;12.10;99.90;;;;;;4446595;32;20207;-70
2021/05/29 04:14:34;;;;;;;16.33;10.73;;;12.20;99.90;;;;;;4448415;32;20202;-70
2021/05/29 04:17:02;;;;;;;13.43;9.77;;;12.10;99.90;;;;;;4441702;32;20146;-70
2021/05/29 04:19:29;;;;;;;14.03;10.53;;;12.10;99.90;;;;;;4441582;32;20150;-70
2021/05/29 04:21:56;;;;;;;14.17;9.60;;;12.20;99.90;;;;;;4441207;32;20195;-70
2021/05/29 04:24:23;;;;;;;15.13;10.50;;;12.30;99.90;;;;;;4440098;32;20168;-70
2021/05/29 04:26:50;;;;;;;12.63;9.33;;;12.30;99.90;;;;;;4440051;32;20198;-69
2021/05/29 04:29:17;;;;;;;14.60;9.50;;;12.30;99.90;;;;;;4439938;32;20357;-69
2021/05/29 04:31:44;;;;;;;13.67;8.93;;;12.40;99.90;;;;;;4439943;32;20187;-70
2021/05/29 04:34:11;;;;;;;12.80;9.23;;;12.40;99.90;;;;;;4440378;32;20173;-69
2021/05/29 04:36:38;;;;;;;11.20;8.90;;;12.30;99.90;;;;;;4440193;32;20177;-69
2021/05/29 04:39:05;;;;;;;12.07;8.80;;;12.40;99.90;;;;;;4439938;32;20146;-69
2021/05/29 04:41:32;;;;;;;12.07;9.20;;;12.50;99.90;;;;;;4450248;32;20153;-69
2021/05/29 04:43:59;;;;;;;12.70;9.40;;;12.70;99.90;;;;;;4447841;32;20211;-69
2021/05/29 04:46:27;;;;;;;12.83;9.23;;;12.60;99.90;;;;;;4446666;32;20561;-69
2021/05/29 04:48:54;;;;;;;11.57;8.80;;;12.70;99.90;;;;;;4441269;32;20168;-69
2021/05/29 04:51:21;;;;;;;11.43;8.97;;;12.60;99.90;;;;;;4439593;32;20181;-68
2021/05/29 04:53:49;;;;;;;11.60;8.53;;;12.60;99.90;;;;;;4440167;32;20504;-69
2021/05/29 04:56:16;;;;;;;10.20;7.83;;;12.50;99.90;;;;;;4440329;32;20158;-69
2021/05/29 04:58:44;;;;;;;11.40;8.17;;;12.60;99.90;;;;;;4436953;32;20166;-68
2021/05/29 05:01:12;;;;;;;11.47;8.33;;;12.60;99.90;;;;;;4437217;32;20230;-73
2021/05/29 05:03:40;;;;;;;10.83;8.20;;;12.70;99.90;;;;;;4437048;32;20191;-73
2021/05/29 05:06:07;;;;;;;10.67;7.80;;;12.60;99.90;;;;;;4436981;32;20569;-73
2021/05/29 05:08:35;;;;;;;11.70;8.23;;;12.60;99.90;;;;;;4436730;32;20162;-73
2021/05/29 05:11:02;;;;;;;12.40;8.40;;;12.60;99.90;;;;;;4441081;32;20166;-73
2021/05/29 05:13:33;;;;;;;10.07;7.93;;;12.60;99.90;;;;;;4447358;32;20431;-75
2021/05/29 05:16:04;;;;;;;11.07;8.33;;;12.60;99.90;;;;;;4451613;32;20184;-74
2021/05/29 05:18:31;;;;;;;13.73;8.77;;;12.50;99.90;;;;;;4454774;32;20153;-73
2021/05/29 05:20:57;;;;;;;11.73;8.43;;;12.50;99.90;;;;;;4454314;32;20168;-73
2021/05/29 05:23:24;;;;;;;11.10;8.53;;;12.50;99.90;;;;;;4456850;32;20454;-72
2021/05/29 05:25:54;;;;;;;15.03;7.70;;;12.50;99.90;;;;;;4456531;32;20183;-74
2021/05/29 05:28:27;;;;;;;10.37;8.10;;;12.60;99.90;;;;;;4455428;32;20187;-73
2021/05/29 05:31:02;;;;;;;11.77;8.20;;;12.60;99.90;;;;;;4454828;32;20170;-73
2021/05/29 05:33:31;;;;;;;10.60;7.80;;;12.70;99.90;;;;;;4443469;32;20408;-74
2021/05/29 05:35:58;;;;;;;12.67;8.23;;;12.80;99.90;;;;;;4443527;32;20192;-74
2021/05/29 05:38:25;;;;;;;10.63;8.07;;;12.80;99.90;;;;;;4442319;32;20199;-74
2021/05/29 05:40:52;;;;;;;11.20;7.83;;;12.80;99.90;;;;;;4443359;32;20441;-73
2021/05/29 05:43:19;;;;;;;11.10;8.20;;;12.70;99.90;;;;;;4450586;32;20185;-73
2021/05/29 05:45:46;;;;;;;10.77;7.37;;;12.80;99.90;;;;;;4454285;32;20184;-74
2021/05/29 05:48:13;;;;;;;10.10;7.27;;;12.60;99.90;;;;;;4443693;32;20476;-73
2021/05/29 05:50:52;;;;;;;8.30;6.70;;;12.70;99.90;;;;;;4442526;32;20150;-73
2021/05/29 05:53:20;;;;;;;10.30;7.50;;;12.90;99.90;;;;;;4442480;32;20174;-73
2021/05/29 05:55:59;;;;;;;11.80;7.07;;;13.00;99.90;;;;;;4443687;32;20135;-73
2021/05/29 05:58:28;;;;;;;9.77;7.50;;;13.10;99.90;;;;;;4443750;32;20158;-74
2021/05/29 06:00:55;;;;;;;9.27;7.17;;;13.00;99.90;;;;;;4443293;32;20427;-73
2021/05/29 06:03:22;;;;;;;8.90;6.63;;;13.00;99.90;;;;;;4441947;32;20202;-73
2021/05/29 06:05:50;;;;;;;8.13;6.57;;;13.00;99.90;;;;;;4442019;32;20199;-73
2021/05/29 06:08:18;;;;;;;8.83;6.10;;;13.30;99.90;;;;;;4442254;32;20169;-73
2021/05/29 06:10:49;;;;;;;8.40;6.43;;;13.70;99.90;;;;;;4443352;32;20150;-73
2021/05/29 06:17:57;;;;;;;7.80;6.50;;;13.90;99.90;;;;;;4443387;32;20165;-74
2021/05/29 06:19:15;;;;;;;9.07;6.70;;;13.80;99.90;;;;;;4443255;32;20168;-74
2021/05/29 06:21:49;;;;;;;9.07;6.90;;;13.90;99.90;;;;;;4443313;32;20149;-74
2021/05/29 06:24:22;;;;;;;8.53;6.80;;;14.10;99.90;;;;;;4443287;32;20203;-74
2021/05/29 06:26:49;;;;;;;8.37;6.43;;;14.10;99.90;;;;;;4441959;32;20181;-74
2021/05/29 06:29:17;;;;;;;7.17;5.67;;;14.10;99.90;;;;;;4442648;32;20162;-75
2021/05/29 06:31:45;;;;;;;7.80;6.03;;;14.10;99.90;;;;;;4448070;32;20162;-74
2021/05/29 06:34:13;;;;;;;7.63;5.83;;;14.00;99.90;;;;;;4444590;32;20212;-74
2021/05/29 06:36:40;;;;;;;9.30;6.00;;;14.20;99.90;;;;;;4441626;32;20138;-74
2021/05/29 06:39:07;;;;;;;8.40;6.23;;;14.20;99.90;;;;;;4441315;32;20207;-74
2021/05/29 06:41:35;;;;;;;8.10;6.17;;;14.30;99.90;;;;;;4441539;32;20195;-74
2021/05/29 06:44:03;;;;;;;6.90;5.83;;;14.20;99.90;;;;;;4441449;32;20146;-74
2021/05/29 06:46:30;;;;;;;8.23;5.60;;;14.10;99.90;;;;;;4441473;32;20236;-74
2021/05/29 06:48:59;;;;;;;8.40;6.00;;;14.10;99.90;;;;;;4441119;32;20540;-74
2021/05/29 06:51:40;;;;;;;8.60;5.73;;;13.80;99.90;;;;;;4440935;32;20361;-74
2021/05/29 06:54:15;;;;;;;7.00;5.10;;;13.90;99.90;;;;;;4441081;32;20401;-74
2021/05/29 06:59:28;;;;;;;7.30;4.60;;;14.00;99.90;;;;;;4441483;32;20219;-73
2021/05/29 07:01:55;;;;;;;5.47;4.77;;;14.00;99.90;;;;;;4441955;32;20172;-74
2021/05/29 07:04:22;;;;;;;6.03;4.70;;;14.20;99.90;;;;;;4441350;32;20170;-74
2021/05/29 07:06:49;;;;;;;7.10;5.00;;;14.50;99.90;;;;;;4441027;32;20174;-73
2021/05/29 07:09:18;;;;;;;7.63;4.50;;;14.60;99.90;;;;;;4442329;32;20150;-73
2021/05/29 07:11:47;;;;;;;6.77;4.43;;;14.80;99.90;;;;;;4443128;32;20476;-76
2021/05/29 07:14:27;;;;;;;6.27;4.70;;;14.80;99.90;;;;;;4434786;32;20174;-74
2021/05/29 07:16:56;;;;;;;4.63;3.97;;;14.90;99.90;;;;;;4440665;32;20147;-74
2021/05/29 07:19:26;;;;;;;5.50;4.33;;;15.00;99.90;;;;;;4440290;32;20159;-74
2021/05/29 07:21:53;;;;;;;4.83;3.90;;;15.10;99.90;;;;;;4444189;32;20209;-75
2021/05/29 07:24:21;;;;;;;5.23;3.70;;;15.40;99.90;;;;;;4440778;32;20151;-75
2021/05/29 07:26:49;;;;;;;6.37;3.57;;;15.50;99.90;;;;;;4440782;32;20468;-74
2021/05/29 07:29:16;;;;;;;4.47;3.40;;;15.40;99.90;;;;;;4440844;32;20423;-76
2021/05/29 07:31:44;;;;;;;6.03;3.40;;;15.40;99.90;;;;;;4453459;32;20162;-75
2021/05/29 07:34:12;;;;;;;6.20;3.17;;;15.40;99.90;;;;;;4456162;32;20475;-74
2021/05/29 07:36:40;;;;;;;4.37;3.20;;;15.20;99.90;;;;;;4456808;32;20223;-75
2021/05/29 07:39:08;;;;;;;5.13;2.80;;;15.20;99.90;;;;;;4455888;32;20174;-75
2021/05/29 07:41:35;;;;;;;3.67;2.80;;;15.20;99.90;;;;;;4457267;32;20193;-75
2021/05/29 07:44:03;;;;;;;4.33;2.87;;;15.20;99.90;;;;;;4455712;32;20138;-75
2021/05/29 07:46:31;;;;;;;3.67;2.80;;;15.10;99.90;;;;;;4455863;32;20146;-75
2021/05/29 07:48:59;;;;;;;3.83;2.60;;;15.10;99.90;;;;;;4457059;32;20175;-75
2021/05/29 07:51:27;;;;;;;4.33;2.63;;;15.00;99.90;;;;;;4455294;32;20162;-75
2021/05/29 07:53:53;;;;;;;5.63;2.90;;;14.90;99.90;;;;;;4455194;32;20527;-75
2021/05/29 07:56:25;;;;;;;4.47;2.80;;;14.90;99.90;;;;;;4456627;32;20158;-74
2021/05/29 07:58:53;;;;;;;4.73;2.73;;;14.80;99.90;;;;;;4455175;32;20154;-75
2021/05/29 08:01:20;;;;;;;4.20;2.90;;;14.70;99.90;;;;;;4456098;32;20173;-74
2021/05/29 08:03:47;;;;;;;3.53;2.90;;;14.60;99.90;;;;;;4455316;32;20396;-74
2021/05/29 08:06:16;;;;;;;3.50;2.33;;;14.60;99.90;;;;;;4454893;32;20556;-74
2021/05/29 08:08:45;;;;;;;3.67;2.70;;;14.70;99.90;;;;;;4456340;32;20193;-74
2021/05/29 08:11:21;;;;;;;3.63;2.90;;;14.90;99.90;;;;;;4456446;32;20134;-75
2021/05/29 08:13:53;;;;;;;3.93;2.50;;;15.10;99.90;;;;;;4455361;32;20158;-74
2021/05/29 08:16:22;;;;;;;3.83;2.40;;;15.10;99.90;;;;;;4456925;32;20197;-74
2021/05/29 08:18:50;;;;;;;3.27;2.53;;;15.20;99.90;;;;;;4455215;32;20207;-74
2021/05/29 08:21:17;;;;;;;3.03;2.60;;;15.40;99.90;;;;;;4456134;32;20145;-76
2021/05/29 08:23:45;;;;;;;5.70;2.50;;;15.70;99.70;;;;;;4455213;32;20162;-75
2021/05/29 08:26:12;;;;;;;7.33;2.37;;;16.00;97.80;;;;;;4455384;32;20170;-75
2021/05/29 08:28:39;;;;;;;3.50;2.27;;;16.40;97.00;;;;;;4454648;32;20252;-75
2021/05/29 08:31:06;;;;;;;3.03;2.30;;;16.90;96.00;;;;;;4454954;32;20383;-76
2021/05/29 08:33:33;;;;;;;3.23;2.20;;;16.90;93.90;;;;;;4455220;32;20533;-76
2021/05/29 08:36:00;;;;;;;3.13;2.00;;;17.10;94.60;;;;;;4456824;32;20169;-75
2021/05/29 08:38:27;;;;;;;5.07;2.00;;;17.20;93.30;;;;;;4456362;32;20400;-76
2021/05/29 08:40:54;;;;;;;3.00;2.20;;;16.90;90.40;;;;;;4448616;32;20484;-76
2021/05/29 08:43:21;;;;;;;3.47;1.90;;;16.60;90.80;;;;;;4452020;32;20186;-76
2021/05/29 08:45:48;;;;;;;4.43;2.30;;;16.40;91.70;;;;;;4455056;32;20153;-76
2021/05/29 08:48:16;;;;;;;2.90;2.50;;;16.10;92.00;;;;;;4439524;32;20146;-74
2021/05/29 08:53:30;;;;;;;4.10;2.00;;;15.80;92.70;;;;;;4441188;32;20177;-76
2021/05/29 08:55:57;;;;;;;2.80;2.20;;;15.70;92.80;;;;;;4439248;32;20154;-74
2021/05/29 08:58:25;;;;;;;2.80;2.20;;;15.70;93.30;;;;;;4439226;32;20142;-75
2021/05/29 09:00:53;;;;;;;4.87;2.47;;;15.70;93.70;;;;;;4439612;32;20180;-75
2021/05/29 09:03:20;;;;;;;3.60;2.30;;;15.80;92.40;;;;;;4440414;32;20169;-76
2021/05/29 09:05:51;;;;;;;2.60;2.20;;;16.20;90.00;;;;;;4439468;32;20139;-74
2021/05/29 09:08:23;;;;;;;4.50;2.13;;;16.50;89.00;;;;;;4440129;32;20434;-75
2021/05/29 09:10:54;;;;;;;2.90;2.10;;;17.20;88.60;;;;;;4439620;32;20434;-76
2021/05/29 09:13:27;;;;;;;4.50;2.50;;;17.60;84.10;;;;;;4437939;32;20309;-75
2021/05/29 09:16:02;;;;;;;2.50;2.10;;;17.80;84.50;;;;;;4439516;32;20206;-74
2021/05/29 09:18:29;;;;;;;2.63;1.87;;;18.20;83.30;;;;;;4440563;32;20183;-77
2021/05/29 09:21:28;;;;;;;2.33;1.90;;;18.60;81.90;;;;;;4439147;32;20214;-75
2021/05/29 09:23:56;;;;;;;3.57;2.07;;;19.20;74.40;;;;;;4439324;32;20513;-76
2021/05/29 09:26:45;;;;;;;2.97;1.70;;;20.00;71.90;;;;;;4439059;32;20135;-76
2021/05/29 09:29:32;;;;;;;3.13;1.60;;;20.40;69.90;;;;;;4432002;32;20257;-75
2021/05/29 09:32:07;;;;;;;1.73;1.43;;;20.80;66.70;;;;;;4439271;32;20154;-76
2021/05/29 09:34:52;;;;;;;1.50;1.40;;;21.30;61.90;;;;;;4440649;32;20400;-75
2021/05/29 09:37:23;;;;;;;2.07;1.50;;;21.60;59.00;;;;;;4440024;32;20151;-74
2021/05/29 09:39:53;;;;;;;2.58;1.40;;;21.70;59.80;;;;;;4443151;32;20190;-75
2021/05/29 09:42:36;;;;;;;1.53;1.20;;;21.30;54.50;;;;;;4451056;32;20223;-76
2021/05/29 09:45:22;;;;;;;2.20;1.70;;;20.60;55.60;;;;;;4438747;32;20156;-74
2021/05/29 09:48:08;;;;;;;1.60;1.30;;;19.70;57.60;;;;;;4438984;32;20146;-76
2021/05/29 09:50:56;;;;;;;1.47;1.30;;;19.50;60.90;;;;;;4440618;32;20461;-76
2021/05/29 09:53:27;;;;;;;1.53;1.40;;;19.50;63.00;;;;;;4438979;32;20158;-75
2021/05/29 09:55:55;;;;;;;3.67;1.57;;;19.40;64.20;;;;;;4439103;32;20147;-77
2021/05/29 09:58:51;;;;;;;2.10;1.60;;;19.50;64.90;;;;;;4439242;32;20151;-77
2021/05/29 10:01:48;;;;;;;3.83;1.70;;;19.10;64.80;;;;;;4438857;32;20536;-77
2021/05/29 10:06:58;;;;;;;3.20;1.90;;;18.90;64.50;;;;;;4438929;32;20509;-78
2021/05/29 10:09:26;;;;;;;2.73;2.00;;;18.50;67.20;;;;;;4439919;32;20398;-78
2021/05/29 10:11:53;;;;;;;2.83;1.80;;;17.90;69.50;;;;;;4442142;32;20207;-75
2021/05/29 10:14:21;;;;;;;3.30;2.00;;;17.60;69.90;;;;;;4441730;32;20162;-75
2021/05/29 10:16:49;;;;;;;2.87;1.63;;;17.20;71.70;;;;;;4441627;32;20195;-77
2021/05/29 10:19:20;;;;;;;2.73;1.80;;;17.40;72.60;;;;;;4439754;32;20199;-76
2021/05/29 10:21:51;;;;;;;3.73;1.80;;;17.60;73.40;;;;;;4447111;32;20174;-77
2021/05/29 10:24:21;;;;;;;1.80;1.63;;;17.60;75.20;;;;;;4455003;32;20223;-76
2021/05/29 10:26:49;;;;;;;6.07;1.77;;;17.70;73.30;;;;;;4455379;32;20188;-77
2021/05/29 10:29:27;;;;;;;2.77;1.60;;;17.60;71.60;;;;;;4445183;32;20190;-77
2021/05/29 10:32:10;;;;;;;4.17;1.70;;;17.80;72.20;;;;;;4443498;32;20238;-79
2021/05/29 10:34:52;;;;;;;4.27;1.80;;;17.60;73.00;;;;;;4440645;32;20138;-78
2021/05/29 10:37:33;;;;;;;2.87;1.60;;;17.80;73.40;;;;;;4441671;32;20214;-76
2021/05/29 10:40:23;;;;;;;3.87;1.97;;;17.70;72.80;;;;;;4443006;32;20481;-77
2021/05/29 10:43:16;;;;;;;3.27;1.87;;;17.80;72.10;;;;;;4448146;32;20298;-78
2021/05/29 10:45:52;;;;;;;3.23;1.87;;;17.70;73.70;;;;;;4451071;32;20169;-76
2021/05/29 10:48:23;;;;;;;2.87;1.70;;;17.60;72.10;;;;;;4456288;32;20472;-77
2021/05/29 10:51:00;;;;;;;3.83;1.60;;;17.60;72.60;;;;;;4457198;32;20185;-77
2021/05/29 10:53:47;;;;;;;1.57;1.33;;;17.50;72.40;;;;;;4456221;32;20162;-77
2021/05/29 10:56:23;;;;;;;2.10;1.57;;;17.40;74.30;;;;;;4456449;32;20394;-77
2021/05/29 10:59:28;;;;;;;2.50;1.73;;;17.30;71.40;;;;;;4457299;32;20401;-77
2021/05/29 11:01:55;;;;;;;4.07;1.63;;;17.10;71.50;;;;;;4454614;32;20184;-77
2021/05/29 11:04:23;;;;;;;2.10;1.60;;;17.00;71.80;;;;;;4456433;32;20143;-77
2021/05/29 11:07:18;;;;;;;2.73;1.73;;;16.80;71.20;;;;;;4457097;32;20406;-77
2021/05/29 11:09:54;;;;;;;2.43;1.70;;;16.40;72.00;;;;;;4455453;32;20187;-76
2021/05/29 11:12:38;;;;;;;1.97;1.63;;;16.20;74.40;;;;;;4455959;32;20447;-77
2021/05/29 11:15:05;;;;;;;3.23;1.80;;;16.20;74.20;;;;;;4457247;32;20149;-76
2021/05/29 11:17:32;;;;;;;3.60;1.80;;;16.20;75.70;;;;;;4456219;32;20134;-82
2021/05/29 11:20:19;;;;;;;3.83;1.87;;;16.50;75.50;;;;;;4455717;32;20157;-83
2021/05/29 11:22:49;;;;;;;2.90;1.90;;;16.80;75.90;;;;;;4457559;32;20146;-76
2021/05/29 11:25:21;;;;;;;3.40;1.90;;;16.60;76.30;;;;;;4456021;32;20142;-76
2021/05/29 11:27:49;;;;;;;3.47;1.73;;;16.70;75.00;;;;;;4455969;32;20238;-78
2021/05/29 11:30:26;;;;;;;2.07;1.60;;;16.80;75.30;;;;;;4455883;32;20137;-77
2021/05/29 11:33:02;;;;;;;2.27;1.50;;;16.70;70.50;;;;;;4456136;32;20431;-76
2021/05/29 11:35:32;;;;;;;3.80;1.53;;;16.70;70.30;;;;;;4455986;32;20161;-78
2021/05/29 11:38:18;;;;;;;3.70;1.57;;;17.10;70.30;;;;;;4456450;32;20383;-77
2021/05/29 11:40:58;;;;;;;3.13;1.30;;;17.10;68.10;;;;;;4457489;32;20444;-77
2021/05/29 11:43:51;;;;;;;2.17;1.27;;;17.00;68.00;;;;;;4455733;32;20422;-77
2021/05/29 11:46:23;;;;;;;1.93;1.50;;;17.00;67.60;;;;;;4455984;32;20452;-77
2021/05/29 11:49:00;;;;;;;2.03;1.27;;;17.10;66.50;;;;;;4455541;32;20391;-77
2021/05/29 11:51:32;;;;;;;2.10;1.47;;;17.20;67.40;;;;;;4455312;32;20205;-76
2021/05/29 11:54:07;;;;;;;2.03;1.70;;;17.30;68.70;;;;;;4457223;32;20194;-76
2021/05/29 11:56:45;;;;;;;2.10;1.80;;;17.00;69.50;;;;;;4456028;32;20407;-77
2021/05/29 11:59:14;;;;;;;1.70;1.60;;;16.80;71.40;;;;;;4455492;32;20409;-77
2021/05/29 12:01:44;;;;;;;1.70;1.60;;;16.50;71.80;;;;;;4454714;32;20193;-76
2021/05/29 12:04:16;;;;;;;2.00;1.60;;;16.40;72.40;;;;;;4455765;32;20481;-76
2021/05/29 12:06:50;;;;;;;2.23;1.70;;;16.20;74.80;;;;;;4457185;32;20185;-76
2021/05/29 12:09:20;;;;;;;1.83;1.63;;;16.30;73.90;;;;;;4457263;32;20142;-77
2021/05/29 12:11:54;;;;;;;2.13;1.70;;;16.30;74.20;;;;;;4455044;32;20142;-76
2021/05/29 12:14:25;;;;;;;2.57;1.63;;;16.00;74.60;;;;;;4455179;32;20526;-77
2021/05/29 12:17:01;;;;;;;3.00;1.90;;;16.30;76.00;;;;;;4456786;32;20342;-77
2021/05/29 12:19:51;;;;;;;2.37;1.60;;;16.50;76.40;;;;;;4455000;32;20184;-77
2021/05/29 12:22:19;;;;;;;1.80;1.60;;;16.50;75.40;;;;;;4446856;32;20604;-76
2021/05/29 12:24:47;;;;;;;2.43;1.60;;;16.50;72.80;;;;;;4446708;32;20162;-70
2021/05/29 12:27:22;;;;;;;3.13;2.00;;;16.60;74.20;;;;;;4456756;32;20187;-70
2021/05/29 12:29:55;;;;;;;3.37;1.93;;;16.60;75.50;;;;;;4455270;32;20134;-70
2021/05/29 12:32:39;;;;;;;3.90;2.30;;;16.40;76.60;;;;;;4456499;32;20142;-70
2021/05/29 12:35:32;;;;;;;4.33;2.10;;;16.40;77.80;;;;;;4455515;32;20207;-70
2021/05/29 12:38:13;;;;;;;3.10;2.20;;;16.20;79.20;;;;;;4456637;32;20174;-70
2021/05/29 12:41:08;;;;;;;2.70;2.17;;;15.90;79.10;;;;;;4456492;32;20190;-70
2021/05/29 12:43:35;;;;;;;3.03;2.00;;;15.80;79.60;;;;;;4455042;32;20168;-70
2021/05/29 12:46:03;;;;;;;3.20;1.90;;;15.50;80.00;;;;;;4454957;32;20131;-70
2021/05/29 12:48:29;;;;;;;2.77;1.90;;;15.60;81.60;;;;;;4454627;32;20158;-70
2021/05/29 12:51:08;;;;;;;2.73;2.00;;;15.60;81.80;;;;;;4455657;32;20145;-70
2021/05/29 12:53:38;;;;;;;2.77;1.93;;;15.60;81.90;;;;;;4454712;32;20485;-69
2021/05/29 12:56:16;;;;;;;3.00;2.00;;;15.60;81.10;;;;;;4456253;32;20465;-70
2021/05/29 12:59:04;;;;;;;4.10;2.00;;;15.50;81.50;;;;;;4456347;32;20218;-70
2021/05/29 13:09:43;;;;;;;3.33;2.17;;;15.90;82.70;;;;;;4441328;32;20185;-70
2021/05/29 13:12:14;;;;;;;2.60;2.20;;;16.10;83.40;;;;;;4441063;32;20202;-70
2021/05/29 13:14:44;;;;;;;2.50;2.07;;;16.30;82.40;;;;;;4439447;32;20193;-70
2021/05/29 13:17:31;;;;;;;3.00;2.40;;;16.70;81.60;;;;;;4440635;32;20154;-71
2021/05/29 13:20:06;;;;;;;3.63;2.60;;;16.80;80.30;;;;;;4440963;32;20142;-70
2021/05/29 13:22:39;;;;;;;4.30;2.17;;;16.90;80.10;;;;;;4440909;32;20137;-69